Ursa Minor — ICGH — position and weather

sailwx.info

Track history (hours):
 
Tides and Currents Weather Stations Pressure Air Temp Water Temp Dewpoint Dewpoint Depression Visibility Wind Speed Wind Dir Waves Ship Positions

Ursa Minor

Last reported at 2018-Apr-23 13:19 UTC. Time now 2018-Apr-23 17:36 UTC.
Position N 37°58' E 015°38'.

Length 205 m; draft 8.4 m.

Type: Cargo ship. MMSI: 247082300.

Date/timePositionNaut miles runAvg speedWind from/ knotsBaromVisibWave heightAir tempDewpointWater temp
2018-Apr-23 13:19N 37°58' E 015°38'412.7
2018-Apr-23 13:00N 38°01' E 015°35'713.1
2018-Apr-23 12:30N 38°08' E 015°35'713.0
2018-Apr-23 11:59N 38°14' E 015°37'510.5
2018-Apr-23 11:30N 38°18' E 015°41'611.9
2018-Apr-23 11:00N 38°24' E 015°37'611.9
2018-Apr-23 10:30N 38°29' E 015°33'611.9
2018-Apr-23 09:58N 38°34' E 015°29'511.7
2018-Apr-23 09:30N 38°39' E 015°25'811.6
2018-Apr-23 08:50N 38°45' E 015°20'511.5
2018-Apr-23 08:22N 38°50' E 015°16'9711.5
2018-Apr-22 23:55N 40°15' E 014°16'511.9
2018-Apr-22 23:29N 40°20' E 014°13'611.9
2018-Apr-22 22:59N 40°25' E 014°09'611.7
2018-Apr-22 22:27N 40°30' E 014°03'511.7
2018-Apr-22 22:00N 40°33' E 013°58'611.5
2018-Apr-22 21:30N 40°37' E 013°52'711.6
2018-Apr-22 20:57N 40°41' E 013°45'611.8
2018-Apr-22 20:29N 40°44' E 013°40'612.2
2018-Apr-22 19:59N 40°48' E 013°34'4712.0
2018-Apr-22 16:03N 41°18' E 012°45'111.5
2018-Apr-22 16:00N 41°18' E 012°44'611.4
2018-Apr-22 15:30N 41°22' E 012°38'2211.7
2018-Apr-22 13:37N 41°36' E 012°16'10911.8
2018-Apr-22 04:23N 42°52' E 010°30'1112.0
2018-Apr-22 03:28N 43°02' E 010°24'612.0
2018-Apr-22 03:00N 43°07' E 010°20'612.0
2018-Apr-22 02:30N 43°12' E 010°16'611.9
2018-Apr-22 02:00N 43°17' E 010°12'612.2
2018-Apr-22 01:30N 43°23' E 010°08'612.1
2018-Apr-22 01:00N 43°28' E 010°03'612.1
2018-Apr-22 00:30N 43°32' E 009°58'612.2
2018-Apr-22 00:01N 43°37' E 009°53'612.1
2018-Apr-21 23:30N 43°42' E 009°48'612.0
2018-Apr-21 23:01N 43°46' E 009°42'612.0
2018-Apr-21 22:30N 43°51' E 009°36'611.8
2018-Apr-21 22:01N 43°55' E 009°31'611.8
2018-Apr-21 21:30N 43°59' E 009°25'612.1
2018-Apr-21 21:01N 44°03' E 009°19'612.1
2018-Apr-21 20:30N 44°08' E 009°13'611.9
2018-Apr-21 20:01N 44°12' E 009°08'611.4
2018-Apr-21 19:30N 44°16' E 009°02'611.3
2018-Apr-21 19:00N 44°21' E 008°57'510.0
2018-Apr-21 18:30N 44°24' E 008°52'0 0.2
2018-Apr-21 18:00N 44°24' E 008°52'0 0.0
2018-Apr-21 17:30N 44°24' E 008°52'0 0.0
2018-Apr-21 16:58N 44°24' E 008°52'0 0.0
2018-Apr-21 16:28N 44°24' E 008°52'0 0.0
2018-Apr-21 15:59N 44°24' E 008°52'0 0.0
2018-Apr-21 15:29N 44°24' E 008°52'0 0.0
2018-Apr-21 14:59N 44°24' E 008°52'0 0.0
2018-Apr-21 14:29N 44°24' E 008°52'0 0.0
2018-Apr-21 13:59N 44°24' E 008°52'0 0.0
2018-Apr-21 13:29N 44°24' E 008°52'0 0.0
2018-Apr-21 12:59N 44°24' E 008°52'0 0.0
2018-Apr-21 12:29N 44°24' E 008°52'0 0.0
2018-Apr-21 11:59N 44°24' E 008°52'0 0.4
2018-Apr-21 11:30N 44°24' E 008°52'0 0.1
2018-Apr-21 11:00N 44°24' E 008°52'0 0.8
2018-Apr-21 10:30N 44°24' E 008°52'2 3.1
2018-Apr-21 10:00N 44°23' E 008°54'1 1.1
2018-Apr-21 09:30N 44°23' E 008°55'1 2.2
2018-Apr-21 09:00N 44°22' E 008°56'4 7.1
2018-Apr-21 08:30N 44°20' E 008°59'611.1
2018-Apr-21 08:01N 44°15' E 009°04'612.0
2018-Apr-21 07:31N 44°11' E 009°10'612.0
2018-Apr-21 07:00N 44°06' E 009°15'611.9
2018-Apr-21 06:30N 44°02' E 009°21'611.8
2018-Apr-21 06:00N 43°58' E 009°26'611.9
2018-Apr-21 05:30N 43°53' E 009°32'612.2
2018-Apr-21 05:00N 43°49' E 009°38'611.9
2018-Apr-21 04:30N 43°44' E 009°43'612.0
2018-Apr-21 04:00N 43°40' E 009°49'611.9
2018-Apr-21 03:30N 43°35' E 009°54'611.7
2018-Apr-21 03:00N 43°32' E 010°01'611.7
2018-Apr-21 02:29N 43°26' E 010°04'611.8
2018-Apr-21 02:00N 43°21' E 010°07'612.3
2018-Apr-21 01:31N 43°16' E 010°11'612.3
2018-Apr-21 01:01N 43°11' E 010°16'612.1
2018-Apr-21 00:30N 43°05' E 010°20'19710.3
2018-Apr-20 05:23N 40°49' E 013°31'411.6
2018-Apr-20 05:00N 40°46' E 013°36'1411.6
2018-Apr-20 03:49N 40°37' E 013°49'411.8
2018-Apr-20 03:30N 40°35' E 013°53'612.2
2018-Apr-20 03:00N 40°31' E 013°59'612.0
2018-Apr-20 02:28N 40°26' E 014°05'911.8
2018-Apr-20 01:40N 40°18' E 014°11'212.0
2018-Apr-20 01:30N 40°16' E 014°13'712.0
2018-Apr-20 00:57N 40°10' E 014°16'612.1
2018-Apr-20 00:27N 40°05' E 014°20'11111.9
2018-Apr-19 15:09N 38°29' E 015°33'211.7
2018-Apr-19 14:59N 38°28' E 015°34'611.6
2018-Apr-19 14:30N 38°23' E 015°38'611.5
2018-Apr-19 14:00N 38°18' E 015°42'6 8.0
2018-Apr-19 13:15N 38°14' E 015°37'310.9
2018-Apr-19 13:00N 38°11' E 015°37'5 9.7
2018-Apr-19 12:28N 38°06' E 015°36'511.0
2018-Apr-19 11:58N 38°01' E 015°36'610.5
2018-Apr-19 11:24N 37°56' E 015°40'511.1
2018-Apr-19 10:55N 37°53' E 015°46'7 0.2
2018-Apr-17 11:32N 37°57' E 015°39'012.8
2018-Apr-17 11:30N 37°58' E 015°39'712.3
2018-Apr-17 10:57N 38°04' E 015°36'612.3
2018-Apr-17 10:30N 38°10' E 015°35'912.5
2018-Apr-17 09:49N 38°17' E 015°40'412.0
2018-Apr-17 09:30N 38°21' E 015°39'611.6
2018-Apr-17 08:58N 38°27' E 015°35'511.3
2018-Apr-17 08:30N 38°31' E 015°32'611.1
2018-Apr-17 08:00N 38°36' E 015°28'511.0
2018-Apr-17 07:30N 38°40' E 015°24'10211.4
2018-Apr-16 22:34N 40°10' E 014°21'411.6
2018-Apr-16 22:14N 40°13' E 014°18'311.7
2018-Apr-16 22:00N 40°15' E 014°16'611.6
2018-Apr-16 21:30N 40°20' E 014°12'811.7
2018-Apr-16 20:51N 40°27' E 014°07'411.6
2018-Apr-16 20:29N 40°30' E 014°03'611.6
2018-Apr-16 20:00N 40°33' E 013°57'611.7
2018-Apr-16 19:30N 40°37' E 013°51'611.6
2018-Apr-16 18:59N 40°40' E 013°45'21611.4
2018-Apr-16 00:09N 43°10' E 010°17'211.7
2018-Apr-15 23:59N 43°12' E 010°15'1111.4
2018-Apr-15 23:02N 43°22' E 010°08'111.5
2018-Apr-15 22:56N 43°23' E 010°07'511.6
2018-Apr-15 22:30N 43°27' E 010°04'611.3
2018-Apr-15 22:00N 43°32' E 009°59'611.4
2018-Apr-15 21:30N 43°36' E 009°54'611.6
2018-Apr-15 21:00N 43°40' E 009°49'611.6
2018-Apr-15 20:29N 43°45' E 009°43'511.4
2018-Apr-15 20:00N 43°49' E 009°39'611.6
2018-Apr-15 19:30N 43°53' E 009°33'611.9
2018-Apr-15 19:00N 43°57' E 009°27'611.7
2018-Apr-15 18:30N 44°02' E 009°22'611.4
2018-Apr-15 18:00N 44°06' E 009°17'611.0
2018-Apr-15 17:30N 44°10' E 009°11'510.8
2018-Apr-15 17:00N 44°14' E 009°06'610.9
2018-Apr-15 16:30N 44°18' E 009°00'511.0
2018-Apr-15 16:00N 44°22' E 008°56'3 7.0
2018-Apr-15 15:30N 44°24' E 008°52'0 0.6
2018-Apr-15 15:00N 44°24' E 008°52'0 0.0
2018-Apr-15 14:31N 44°24' E 008°52'0 0.0
2018-Apr-15 14:00N 44°24' E 008°52'0 0.0
2018-Apr-15 13:31N 44°24' E 008°52'0 0.0
2018-Apr-15 13:00N 44°24' E 008°52'0 0.0
2018-Apr-15 12:31N 44°24' E 008°52'0 0.0
2018-Apr-15 12:00N 44°24' E 008°52'0 0.0
2018-Apr-15 11:31N 44°24' E 008°52'0 0.0
2018-Apr-15 11:01N 44°24' E 008°52'0 0.0
2018-Apr-15 10:30N 44°24' E 008°52'0 0.0
2018-Apr-15 10:00N 44°24' E 008°52'0 0.0
2018-Apr-15 09:31N 44°24' E 008°52'0 0.0
2018-Apr-15 09:01N 44°24' E 008°52'0 0.0
2018-Apr-15 08:30N 44°24' E 008°52'0 0.0
2018-Apr-15 08:00N 44°24' E 008°52'0 0.0
2018-Apr-15 07:30N 44°24' E 008°52'0 0.0
2018-Apr-15 06:57N 44°24' E 008°52'0 0.0
2018-Apr-15 06:30N 44°24' E 008°52'0 0.4
2018-Apr-15 06:00N 44°24' E 008°52'0 0.0
2018-Apr-15 05:30N 44°24' E 008°52'1 1.4
2018-Apr-15 05:00N 44°24' E 008°53'4 7.3
2018-Apr-15 04:30N 44°22' E 008°58'2 4.8
2018-Apr-15 04:00N 44°20' E 008°59'510.9
2018-Apr-15 03:30N 44°16' E 009°04'611.2
2018-Apr-15 03:00N 44°11' E 009°06'611.3
2018-Apr-15 02:30N 44°08' E 009°13'611.1
2018-Apr-15 02:00N 44°04' E 009°19'611.3
2018-Apr-15 01:30N 43°59' E 009°24'510.9
2018-Apr-15 01:00N 43°55' E 009°29'510.9
2018-Apr-15 00:30N 43°51' E 009°34'611.0
2018-Apr-15 00:00N 43°47' E 009°39'611.2
2018-Apr-14 23:30N 43°43' E 009°44'611.0
2018-Apr-14 23:00N 43°39' E 009°49'611.1
2018-Apr-14 22:30N 43°35' E 009°54'611.1
2018-Apr-14 22:00N 43°31' E 009°59'611.1
2018-Apr-14 21:30N 43°26' E 010°04'611.1
2018-Apr-14 21:00N 43°21' E 010°08'511.1
2018-Apr-14 20:30N 43°16' E 010°11'611.2
2018-Apr-14 20:00N 43°12' E 010°15'611.0
2018-Apr-14 19:30N 43°07' E 010°19'18711.5
2018-Apr-14 03:14N 40°56' E 013°19'412.5
2018-Apr-14 02:56N 40°54' E 013°23'612.8
2018-Apr-14 02:29N 40°50' E 013°28'1112.7
2018-Apr-14 01:35N 40°42' E 013°40'112.6
2018-Apr-14 01:30N 40°42' E 013°41'712.6
2018-Apr-14 00:59N 40°38' E 013°47'612.8
2018-Apr-14 00:30N 40°34' E 013°54'712.9
2018-Apr-14 00:00N 40°30' E 014°00'612.9
2018-Apr-13 23:30N 40°26' E 014°07'713.0
2018-Apr-13 23:00N 40°23' E 014°15'712.9
2018-Apr-13 22:29N 40°20' E 014°22'612.8
2018-Apr-13 21:59N 40°17' E 014°30'  
Track history (hours):
 
Tides and Currents Weather Stations Pressure Air Temp Water Temp Dewpoint Dewpoint Depression Visibility Wind Speed Wind Dir Waves Ship Positions

Ursa Minor

Last reported at 2018-Apr-23 13:19 UTC. Time now 2018-Apr-23 17:36 UTC.
Position N 37°58' E 015°38'.

Length 205 m; draft 8.4 m.

Type: Cargo ship. MMSI: 247082300.

Date/timePositionNaut miles runAvg speedWind from/ knotsBaromVisibWave heightAir tempDewpointWater temp
2018-Apr-23 13:19N 37°58' E 015°38'412.7
2018-Apr-23 13:00N 38°01' E 015°35'713.1
2018-Apr-23 12:30N 38°08' E 015°35'713.0
2018-Apr-23 11:59N 38°14' E 015°37'510.5
2018-Apr-23 11:30N 38°18' E 015°41'611.9
2018-Apr-23 11:00N 38°24' E 015°37'611.9
2018-Apr-23 10:30N 38°29' E 015°33'611.9
2018-Apr-23 09:58N 38°34' E 015°29'511.7
2018-Apr-23 09:30N 38°39' E 015°25'811.6
2018-Apr-23 08:50N 38°45' E 015°20'511.5
2018-Apr-23 08:22N 38°50' E 015°16'9711.5
2018-Apr-22 23:55N 40°15' E 014°16'511.9
2018-Apr-22 23:29N 40°20' E 014°13'611.9
2018-Apr-22 22:59N 40°25' E 014°09'611.7
2018-Apr-22 22:27N 40°30' E 014°03'511.7
2018-Apr-22 22:00N 40°33' E 013°58'611.5
2018-Apr-22 21:30N 40°37' E 013°52'711.6
2018-Apr-22 20:57N 40°41' E 013°45'611.8
2018-Apr-22 20:29N 40°44' E 013°40'612.2
2018-Apr-22 19:59N 40°48' E 013°34'4712.0
2018-Apr-22 16:03N 41°18' E 012°45'111.5
2018-Apr-22 16:00N 41°18' E 012°44'611.4
2018-Apr-22 15:30N 41°22' E 012°38'2211.7
2018-Apr-22 13:37N 41°36' E 012°16'10911.8
2018-Apr-22 04:23N 42°52' E 010°30'1112.0
2018-Apr-22 03:28N 43°02' E 010°24'612.0
2018-Apr-22 03:00N 43°07' E 010°20'612.0
2018-Apr-22 02:30N 43°12' E 010°16'611.9
2018-Apr-22 02:00N 43°17' E 010°12'612.2
2018-Apr-22 01:30N 43°23' E 010°08'612.1
2018-Apr-22 01:00N 43°28' E 010°03'612.1
2018-Apr-22 00:30N 43°32' E 009°58'612.2
2018-Apr-22 00:01N 43°37' E 009°53'612.1
2018-Apr-21 23:30N 43°42' E 009°48'612.0
2018-Apr-21 23:01N 43°46' E 009°42'612.0
2018-Apr-21 22:30N 43°51' E 009°36'611.8
2018-Apr-21 22:01N 43°55' E 009°31'611.8
2018-Apr-21 21:30N 43°59' E 009°25'612.1
2018-Apr-21 21:01N 44°03' E 009°19'612.1
2018-Apr-21 20:30N 44°08' E 009°13'611.9
2018-Apr-21 20:01N 44°12' E 009°08'611.4
2018-Apr-21 19:30N 44°16' E 009°02'611.3
2018-Apr-21 19:00N 44°21' E 008°57'510.0
2018-Apr-21 18:30N 44°24' E 008°52'0 0.2
2018-Apr-21 18:00N 44°24' E 008°52'0 0.0
2018-Apr-21 17:30N 44°24' E 008°52'0 0.0
2018-Apr-21 16:58N 44°24' E 008°52'0 0.0
2018-Apr-21 16:28N 44°24' E 008°52'0 0.0
2018-Apr-21 15:59N 44°24' E 008°52'0 0.0
2018-Apr-21 15:29N 44°24' E 008°52'0 0.0
2018-Apr-21 14:59N 44°24' E 008°52'0 0.0
2018-Apr-21 14:29N 44°24' E 008°52'0 0.0
2018-Apr-21 13:59N 44°24' E 008°52'0 0.0
2018-Apr-21 13:29N 44°24' E 008°52'0 0.0
2018-Apr-21 12:59N 44°24' E 008°52'0 0.0
2018-Apr-21 12:29N 44°24' E 008°52'0 0.0
2018-Apr-21 11:59N 44°24' E 008°52'0 0.4
2018-Apr-21 11:30N 44°24' E 008°52'0 0.1
2018-Apr-21 11:00N 44°24' E 008°52'0 0.8
2018-Apr-21 10:30N 44°24' E 008°52'2 3.1
2018-Apr-21 10:00N 44°23' E 008°54'1 1.1
2018-Apr-21 09:30N 44°23' E 008°55'1 2.2
2018-Apr-21 09:00N 44°22' E 008°56'4 7.1
2018-Apr-21 08:30N 44°20' E 008°59'611.1
2018-Apr-21 08:01N 44°15' E 009°04'612.0
2018-Apr-21 07:31N 44°11' E 009°10'612.0
2018-Apr-21 07:00N 44°06' E 009°15'611.9
2018-Apr-21 06:30N 44°02' E 009°21'611.8
2018-Apr-21 06:00N 43°58' E 009°26'611.9
2018-Apr-21 05:30N 43°53' E 009°32'612.2
2018-Apr-21 05:00N 43°49' E 009°38'611.9
2018-Apr-21 04:30N 43°44' E 009°43'612.0
2018-Apr-21 04:00N 43°40' E 009°49'611.9
2018-Apr-21 03:30N 43°35' E 009°54'611.7
2018-Apr-21 03:00N 43°32' E 010°01'611.7
2018-Apr-21 02:29N 43°26' E 010°04'611.8
2018-Apr-21 02:00N 43°21' E 010°07'612.3
2018-Apr-21 01:31N 43°16' E 010°11'612.3
2018-Apr-21 01:01N 43°11' E 010°16'612.1
2018-Apr-21 00:30N 43°05' E 010°20'19710.3
2018-Apr-20 05:23N 40°49' E 013°31'411.6
2018-Apr-20 05:00N 40°46' E 013°36'1411.6
2018-Apr-20 03:49N 40°37' E 013°49'411.8
2018-Apr-20 03:30N 40°35' E 013°53'612.2
2018-Apr-20 03:00N 40°31' E 013°59'612.0
2018-Apr-20 02:28N 40°26' E 014°05'911.8
2018-Apr-20 01:40N 40°18' E 014°11'212.0
2018-Apr-20 01:30N 40°16' E 014°13'712.0
2018-Apr-20 00:57N 40°10' E 014°16'612.1
2018-Apr-20 00:27N 40°05' E 014°20'11111.9
2018-Apr-19 15:09N 38°29' E 015°33'211.7
2018-Apr-19 14:59N 38°28' E 015°34'611.6
2018-Apr-19 14:30N 38°23' E 015°38'611.5
2018-Apr-19 14:00N 38°18' E 015°42'6 8.0
2018-Apr-19 13:15N 38°14' E 015°37'310.9
2018-Apr-19 13:00N 38°11' E 015°37'5 9.7
2018-Apr-19 12:28N 38°06' E 015°36'511.0
2018-Apr-19 11:58N 38°01' E 015°36'610.5
2018-Apr-19 11:24N 37°56' E 015°40'511.1
2018-Apr-19 10:55N 37°53' E 015°46'7 0.2
2018-Apr-17 11:32N 37°57' E 015°39'012.8
2018-Apr-17 11:30N 37°58' E 015°39'712.3
2018-Apr-17 10:57N 38°04' E 015°36'612.3
2018-Apr-17 10:30N 38°10' E 015°35'912.5
2018-Apr-17 09:49N 38°17' E 015°40'412.0
2018-Apr-17 09:30N 38°21' E 015°39'611.6
2018-Apr-17 08:58N 38°27' E 015°35'511.3
2018-Apr-17 08:30N 38°31' E 015°32'611.1
2018-Apr-17 08:00N 38°36' E 015°28'511.0
2018-Apr-17 07:30N 38°40' E 015°24'10211.4
2018-Apr-16 22:34N 40°10' E 014°21'411.6
2018-Apr-16 22:14N 40°13' E 014°18'311.7
2018-Apr-16 22:00N 40°15' E 014°16'611.6
2018-Apr-16 21:30N 40°20' E 014°12'811.7
2018-Apr-16 20:51N 40°27' E 014°07'411.6
2018-Apr-16 20:29N 40°30' E 014°03'611.6
2018-Apr-16 20:00N 40°33' E 013°57'611.7
2018-Apr-16 19:30N 40°37' E 013°51'611.6
2018-Apr-16 18:59N 40°40' E 013°45'21611.4
2018-Apr-16 00:09N 43°10' E 010°17'211.7
2018-Apr-15 23:59N 43°12' E 010°15'1111.4
2018-Apr-15 23:02N 43°22' E 010°08'111.5
2018-Apr-15 22:56N 43°23' E 010°07'511.6
2018-Apr-15 22:30N 43°27' E 010°04'611.3
2018-Apr-15 22:00N 43°32' E 009°59'611.4
2018-Apr-15 21:30N 43°36' E 009°54'611.6
2018-Apr-15 21:00N 43°40' E 009°49'611.6
2018-Apr-15 20:29N 43°45' E 009°43'511.4
2018-Apr-15 20:00N 43°49' E 009°39'611.6
2018-Apr-15 19:30N 43°53' E 009°33'611.9
2018-Apr-15 19:00N 43°57' E 009°27'611.7
2018-Apr-15 18:30N 44°02' E 009°22'611.4
2018-Apr-15 18:00N 44°06' E 009°17'611.0
2018-Apr-15 17:30N 44°10' E 009°11'510.8
2018-Apr-15 17:00N 44°14' E 009°06'610.9
2018-Apr-15 16:30N 44°18' E 009°00'511.0
2018-Apr-15 16:00N 44°22' E 008°56'3 7.0
2018-Apr-15 15:30N 44°24' E 008°52'0 0.6
2018-Apr-15 15:00N 44°24' E 008°52'0 0.0
2018-Apr-15 14:31N 44°24' E 008°52'0 0.0
2018-Apr-15 14:00N 44°24' E 008°52'0 0.0
2018-Apr-15 13:31N 44°24' E 008°52'0 0.0
2018-Apr-15 13:00N 44°24' E 008°52'0 0.0
2018-Apr-15 12:31N 44°24' E 008°52'0 0.0
2018-Apr-15 12:00N 44°24' E 008°52'0 0.0
2018-Apr-15 11:31N 44°24' E 008°52'0 0.0
2018-Apr-15 11:01N 44°24' E 008°52'0 0.0
2018-Apr-15 10:30N 44°24' E 008°52'0 0.0
2018-Apr-15 10:00N 44°24' E 008°52'0 0.0
2018-Apr-15 09:31N 44°24' E 008°52'0 0.0
2018-Apr-15 09:01N 44°24' E 008°52'0 0.0
2018-Apr-15 08:30N 44°24' E 008°52'0 0.0
2018-Apr-15 08:00N 44°24' E 008°52'0 0.0
2018-Apr-15 07:30N 44°24' E 008°52'0 0.0
2018-Apr-15 06:57N 44°24' E 008°52'0 0.0
2018-Apr-15 06:30N 44°24' E 008°52'0 0.4
2018-Apr-15 06:00N 44°24' E 008°52'0 0.0
2018-Apr-15 05:30N 44°24' E 008°52'1 1.4
2018-Apr-15 05:00N 44°24' E 008°53'4 7.3
2018-Apr-15 04:30N 44°22' E 008°58'2 4.8
2018-Apr-15 04:00N 44°20' E 008°59'510.9
2018-Apr-15 03:30N 44°16' E 009°04'611.2
2018-Apr-15 03:00N 44°11' E 009°06'611.3
2018-Apr-15 02:30N 44°08' E 009°13'611.1
2018-Apr-15 02:00N 44°04' E 009°19'611.3
2018-Apr-15 01:30N 43°59' E 009°24'510.9
2018-Apr-15 01:00N 43°55' E 009°29'510.9
2018-Apr-15 00:30N 43°51' E 009°34'611.0
2018-Apr-15 00:00N 43°47' E 009°39'611.2
2018-Apr-14 23:30N 43°43' E 009°44'611.0
2018-Apr-14 23:00N 43°39' E 009°49'611.1
2018-Apr-14 22:30N 43°35' E 009°54'611.1
2018-Apr-14 22:00N 43°31' E 009°59'611.1
2018-Apr-14 21:30N 43°26' E 010°04'611.1
2018-Apr-14 21:00N 43°21' E 010°08'511.1
2018-Apr-14 20:30N 43°16' E 010°11'611.2
2018-Apr-14 20:00N 43°12' E 010°15'611.0
2018-Apr-14 19:30N 43°07' E 010°19'18711.5
2018-Apr-14 03:14N 40°56' E 013°19'412.5
2018-Apr-14 02:56N 40°54' E 013°23'612.8
2018-Apr-14 02:29N 40°50' E 013°28'1112.7
2018-Apr-14 01:35N 40°42' E 013°40'112.6
2018-Apr-14 01:30N 40°42' E 013°41'712.6
2018-Apr-14 00:59N 40°38' E 013°47'612.8
2018-Apr-14 00:30N 40°34' E 013°54'712.9
2018-Apr-14 00:00N 40°30' E 014°00'612.9
2018-Apr-13 23:30N 40°26' E 014°07'713.0
2018-Apr-13 23:00N 40°23' E 014°15'712.9
2018-Apr-13 22:29N 40°20' E 014°22'612.8
2018-Apr-13 21:59N 40°17' E 014°30'  

Dump ship's entire track history